createdAt,value
2023-02-19T00:02:21.667Z,93822.84
2023-02-19T00:04:49.834Z,93829.41
2023-02-19T00:07:17.702Z,93792.94
2023-02-19T00:09:45.540Z,93805.44
2023-02-19T00:12:13.453Z,93801.88
2023-02-19T00:14:41.381Z,93816.72
2023-02-19T00:17:09.387Z,93803.31
2023-02-19T00:19:37.455Z,93807.38
2023-02-19T00:22:05.373Z,93761.31
2023-02-19T00:24:33.361Z,93780.75
2023-02-19T00:27:01.193Z,93787.69
2023-02-19T00:29:29.350Z,93805.28
2023-02-19T00:31:57.319Z,93787.22
2023-02-19T00:34:25.429Z,93789.34
2023-02-19T00:36:53.451Z,93789.34
2023-02-19T00:39:21.637Z,93767.59
2023-02-19T00:41:49.807Z,93761.19
2023-02-19T00:44:18.122Z,93752.81
2023-02-19T00:46:49.253Z,93752.72
2023-02-19T00:49:21.441Z,93753.31
2023-02-19T00:51:51.662Z,93753.53
2023-02-19T00:54:20.285Z,93739.84
2023-02-19T00:56:48.883Z,93735.72
2023-02-19T00:59:16.933Z,93730.88
2023-02-19T01:01:45.597Z,93728.28
2023-02-19T01:04:13.920Z,93723.88
2023-02-19T01:06:42.358Z,93736.13
2023-02-19T01:09:10.380Z,93733.38
2023-02-19T01:11:38.286Z,93711.91
2023-02-19T01:14:06.257Z,93716.47
2023-02-19T01:16:34.046Z,93697.06
2023-02-19T01:19:02.534Z,93726.50
2023-02-19T01:21:31.769Z,93725.59
2023-02-19T01:23:59.864Z,93718.34
2023-02-19T01:26:31.154Z,93698.69
2023-02-19T01:29:01.362Z,93720.03
2023-02-19T01:31:31.070Z,93702.28
2023-02-19T01:34:01.302Z,93709.41
2023-02-19T01:36:32.440Z,93712.00
2023-02-19T01:39:04.023Z,93695.09
2023-02-19T01:41:40.546Z,93695.34
2023-02-19T01:44:28.482Z,93712.88
2023-02-19T01:46:57.837Z,93703.13
2023-02-19T01:49:32.152Z,93718.09
2023-02-19T01:52:11.510Z,93726.34
2023-02-19T01:54:42.718Z,93734.41
2023-02-19T01:57:22.276Z,93741.94
2023-02-19T01:59:55.473Z,93752.53
2023-02-19T02:02:25.308Z,93762.47
2023-02-19T02:04:53.705Z,93772.16
2023-02-19T02:07:41.680Z,93784.81
2023-02-19T02:10:21.837Z,93778.78
2023-02-19T02:12:53.324Z,93717.38
2023-02-19T02:15:22.540Z,93784.22
2023-02-19T02:18:36.103Z,93789.53
2023-02-19T02:21:21.985Z,93793.75
2023-02-19T02:24:08.491Z,93791.69
2023-02-19T02:26:56.567Z,93785.53
2023-02-19T02:30:02.173Z,93799.63
2023-02-19T02:32:38.602Z,93799.47
2023-02-19T02:35:11.590Z,93795.41
2023-02-19T02:37:43.708Z,93800.13
2023-02-19T02:40:12.779Z,93779.66
2023-02-19T02:42:40.832Z,93799.44
2023-02-19T02:45:37.416Z,93808.03
2023-02-19T02:48:46.733Z,93808.63
2023-02-19T02:51:38.933Z,93803.34
2023-02-19T02:58:10.888Z,93809.00
2023-02-19T03:01:02.371Z,93800.78
2023-02-19T03:03:32.724Z,93806.75
2023-02-19T03:06:04.957Z,93829.50
2023-02-19T03:09:18.876Z,93796.06
2023-02-19T03:12:09.096Z,93842.09
2023-02-19T03:15:05.207Z,93826.50
2023-02-19T03:18:02.202Z,93801.47
2023-02-19T03:20:34.675Z,93822.94
2023-02-19T03:23:03.199Z,93834.75
2023-02-19T03:25:57.775Z,93834.75
2023-02-19T03:28:57.856Z,93830.47
2023-02-19T03:31:30.180Z,93827.44
2023-02-19T03:34:05.972Z,93727.44
2023-02-19T03:36:46.089Z,93835.97
2023-02-19T03:39:19.160Z,93840.03
2023-02-19T03:42:06.221Z,93836.56
2023-02-19T03:44:39.201Z,93841.06
2023-02-19T03:47:28.140Z,93847.31
2023-02-19T03:50:09.185Z,93839.81
2023-02-19T03:52:52.356Z,93850.38
2023-02-19T03:55:38.144Z,93851.34
2023-02-19T03:58:14.935Z,93838.78
2023-02-19T04:00:47.855Z,93841.63
2023-02-19T04:03:24.805Z,93838.78
2023-02-19T04:06:01.412Z,93843.03
2023-02-19T04:08:31.429Z,93851.53
2023-02-19T04:11:04.964Z,93851.13
2023-02-19T04:13:45.932Z,93856.41
2023-02-19T04:16:20.939Z,93852.97
2023-02-19T04:18:54.701Z,93861.91
2023-02-19T04:21:24.211Z,93862.91
2023-02-19T04:23:52.438Z,93852.50
2023-02-19T04:26:22.856Z,93869.19
2023-02-19T04:28:53.066Z,93870.38
2023-02-19T04:31:21.509Z,93876.84
2023-02-19T04:33:49.510Z,93864.03
2023-02-19T04:36:17.567Z,93875.00
2023-02-19T04:38:45.599Z,93878.66
2023-02-19T04:41:13.691Z,93875.16
2023-02-19T04:43:41.595Z,93878.19
2023-02-19T04:46:10.078Z,93882.66
2023-02-19T04:48:38.222Z,93885.81
2023-02-19T04:51:07.801Z,93884.41
2023-02-19T04:53:36.853Z,93882.84
2023-02-19T04:56:16.056Z,93893.63
2023-02-19T04:58:44.908Z,93894.34
2023-02-19T05:01:13.590Z,93902.31
2023-02-19T05:03:41.788Z,93900.72
2023-02-19T05:06:13.736Z,93901.13
2023-02-19T05:08:42.005Z,93903.38
2023-02-19T05:11:12.391Z,93898.22
2023-02-19T05:13:40.924Z,93894.38
2023-02-19T05:16:14.169Z,93895.16
2023-02-19T05:18:43.961Z,93912.88
2023-02-19T05:21:12.700Z,93916.31
2023-02-19T05:23:41.653Z,93921.84
2023-02-19T05:26:19.388Z,93907.19
2023-02-19T05:28:49.619Z,93925.56
2023-02-19T05:31:18.953Z,93918.94
2023-02-19T05:33:51.421Z,93922.38
2023-02-19T05:36:21.740Z,93926.38
2023-02-19T05:38:57.299Z,93923.69
2023-02-19T05:41:28.012Z,93925.56
2023-02-19T05:43:57.171Z,93930.94
2023-02-19T05:46:27.821Z,93933.00
2023-02-19T05:48:56.302Z,93933.50
2023-02-19T05:51:26.390Z,93938.91
2023-02-19T05:53:56.043Z,93940.69
2023-02-19T05:56:26.516Z,93939.16
2023-02-19T05:58:55.853Z,93943.69
2023-02-19T06:01:24.873Z,93935.94
2023-02-19T06:03:55.456Z,93942.06
2023-02-19T06:06:26.408Z,93943.00
2023-02-19T06:08:54.721Z,93949.75
2023-02-19T06:11:23.054Z,93946.31
2023-02-19T06:13:51.238Z,93949.06
2023-02-19T06:16:19.634Z,93942.22
2023-02-19T06:18:48.462Z,93937.00
2023-02-19T06:21:18.171Z,93946.47
2023-02-19T06:23:46.678Z,93945.94
2023-02-19T06:26:20.942Z,93950.22
2023-02-19T06:28:51.266Z,93944.94
2023-02-19T06:31:20.901Z,93941.13
2023-02-19T06:33:50.986Z,93940.94
2023-02-19T06:36:20.911Z,93950.88
2023-02-19T06:38:49.222Z,93938.69
2023-02-19T06:41:18.108Z,93946.41
2023-02-19T06:43:46.922Z,93953.06
2023-02-19T06:46:15.673Z,93953.06
2023-02-19T06:48:45.487Z,93969.53
2023-02-19T06:51:15.832Z,93961.13
2023-02-19T06:53:43.804Z,93961.25
2023-02-19T06:56:30.359Z,93958.97
2023-02-19T06:59:01.622Z,93959.13
2023-02-19T07:01:32.061Z,93928.75
2023-02-19T07:04:00.157Z,93953.34
2023-02-19T07:06:28.550Z,93952.03
2023-02-19T07:08:58.512Z,93958.09
2023-02-19T07:11:29.582Z,93931.69
2023-02-19T07:14:02.770Z,93947.91
2023-02-19T07:16:31.254Z,93939.53
2023-02-19T07:19:00.954Z,93960.94
2023-02-19T07:21:29.907Z,93959.47
2023-02-19T07:23:58.158Z,93957.66
2023-02-19T07:26:26.205Z,93948.81
2023-02-19T07:28:54.280Z,93944.28
2023-02-19T07:31:24.503Z,93937.00
2023-02-19T07:33:53.162Z,93933.19
2023-02-19T07:36:23.554Z,93934.41
2023-02-19T07:38:59.577Z,93926.09
2023-02-19T07:41:28.338Z,93926.78
2023-02-19T07:43:59.056Z,93920.28
2023-02-19T07:46:27.461Z,93929.66
2023-02-19T07:48:55.389Z,93921.72
2023-02-19T07:51:23.788Z,93929.88
2023-02-19T07:53:52.243Z,93930.06
2023-02-19T07:56:21.201Z,93928.16
2023-02-19T07:58:49.581Z,93933.06
2023-02-19T08:01:40.264Z,93926.66
2023-02-19T08:04:08.972Z,93919.09
2023-02-19T08:06:36.921Z,93918.53
2023-02-19T08:09:06.235Z,93912.53
2023-02-19T08:11:53.241Z,93905.59
2023-02-19T08:14:24.707Z,93911.53
2023-02-19T08:16:53.572Z,93908.66
2023-02-19T08:19:21.481Z,93908.97
2023-02-19T08:21:51.109Z,93918.09
2023-02-19T08:24:19.129Z,93911.28
2023-02-19T08:26:47.506Z,93897.50
2023-02-19T08:29:15.884Z,93904.59
2023-02-19T08:31:44.534Z,93895.16
2023-02-19T08:34:12.983Z,93887.69
2023-02-19T08:36:41.078Z,93900.09
2023-02-19T08:39:09.567Z,93852.84
2023-02-19T08:41:38.003Z,93892.78
2023-02-19T08:44:06.361Z,93886.56
2023-02-19T08:46:34.813Z,93856.44
2023-02-19T08:49:02.945Z,93896.88
2023-02-19T08:51:31.341Z,93897.19
2023-02-19T08:53:59.407Z,93894.47
2023-02-19T08:56:27.711Z,93886.81
2023-02-19T08:58:56.137Z,93869.72
2023-02-19T09:01:24.668Z,93867.28
2023-02-19T09:03:54.336Z,93867.47
2023-02-19T09:06:22.930Z,93860.50
2023-02-19T09:08:51.335Z,93861.31
2023-02-19T09:11:19.643Z,93861.16
2023-02-19T09:13:48.231Z,93852.50
2023-02-19T09:16:16.513Z,93849.97
2023-02-19T09:18:46.160Z,93843.91
2023-02-19T09:21:14.399Z,93853.44
2023-02-19T09:23:45.691Z,93835.19
2023-02-19T09:26:14.399Z,93844.19
2023-02-19T09:28:42.515Z,93854.59
2023-02-19T09:31:14.589Z,93846.38
2023-02-19T09:33:47.897Z,93833.66
2023-02-19T09:36:18.965Z,93826.97
2023-02-19T09:38:47.343Z,93831.53
2023-02-19T09:41:32.917Z,93821.94
2023-02-19T09:44:04.832Z,93823.03
2023-02-19T09:46:54.549Z,93824.22
2023-02-19T09:49:50.298Z,93826.97
2023-02-19T09:52:37.358Z,93823.91
2023-02-19T09:55:19.470Z,93825.38
2023-02-19T09:57:51.294Z,93811.16
2023-02-19T10:00:29.498Z,93807.97
2023-02-19T10:03:10.418Z,93805.66
2023-02-19T10:05:41.517Z,93810.34
2023-02-19T10:08:18.890Z,93808.56
2023-02-19T10:10:47.834Z,93789.53
2023-02-19T10:13:23.601Z,93786.78
2023-02-19T10:15:57.627Z,93786.97
2023-02-19T10:18:31.610Z,93780.22
2023-02-19T10:21:01.146Z,93777.34
2023-02-19T10:23:29.832Z,93766.84
2023-02-19T10:26:01.521Z,93762.13
2023-02-19T10:28:34.192Z,93753.34
2023-02-19T10:31:05.677Z,93744.41
2023-02-19T10:33:34.104Z,93740.69
2023-02-19T10:36:24.038Z,93744.84
2023-02-19T10:38:53.289Z,93729.16
2023-02-19T10:41:24.735Z,93729.03
2023-02-19T10:44:00.378Z,93729.03
2023-02-19T10:46:33.515Z,93716.47
2023-02-19T10:49:05.361Z,93714.13
2023-02-19T10:51:39.417Z,93708.91
2023-02-19T10:54:25.955Z,93700.28
2023-02-19T10:56:54.973Z,93695.31
2023-02-19T10:59:28.804Z,93689.38
2023-02-19T11:02:17.351Z,93674.78
2023-02-19T11:05:03.885Z,93678.84
2023-02-19T11:07:34.203Z,93670.19
2023-02-19T11:10:04.917Z,93662.03
2023-02-19T11:12:35.201Z,93658.22
2023-02-19T11:15:29.986Z,93654.63
2023-02-19T11:18:20.962Z,93654.78
2023-02-19T11:20:50.174Z,93657.09
2023-02-19T11:23:22.706Z,93646.66
2023-02-19T11:25:54.482Z,93644.41
2023-02-19T11:28:31.887Z,93648.78
2023-02-19T11:31:32.016Z,93646.38
2023-02-19T11:34:29.416Z,93635.94
2023-02-19T11:37:14.017Z,93636.00
2023-02-19T11:39:47.823Z,93627.69
2023-02-19T11:42:35.548Z,93622.84
2023-02-19T11:45:49.167Z,93612.75
2023-02-19T11:48:30.261Z,93615.84
2023-02-19T11:51:16.590Z,93616.91
2023-02-19T11:53:53.894Z,93612.56
2023-02-19T11:56:34.317Z,93599.31
2023-02-19T11:59:05.752Z,93595.81
2023-02-19T12:01:52.393Z,93591.78
2023-02-19T12:04:31.956Z,93592.00
2023-02-19T12:07:19.149Z,93585.75
2023-02-19T12:09:50.486Z,93586.63
2023-02-19T12:12:32.435Z,93575.84
2023-02-19T12:15:33.200Z,93575.31
2023-02-19T12:18:07.196Z,93577.66
2023-02-19T12:20:52.049Z,93570.72
2023-02-19T12:23:44.902Z,93564.06
2023-02-19T12:26:59.861Z,93567.13
2023-02-19T12:29:49.927Z,93560.47
2023-02-19T12:32:45.378Z,93550.47
2023-02-19T12:35:47.953Z,93542.19
2023-02-19T12:38:58.735Z,93537.00
2023-02-19T12:41:35.901Z,93527.31
2023-02-19T12:44:55.661Z,93527.56
2023-02-19T12:47:32.549Z,93512.47
2023-02-19T12:50:12.994Z,93513.94
2023-02-19T12:52:46.799Z,93512.03
2023-02-19T12:55:38.632Z,93500.13
2023-02-19T12:58:14.400Z,93500.22
2023-02-19T13:00:51.039Z,93500.56
2023-02-19T13:03:29.188Z,93493.88
2023-02-19T13:06:21.621Z,93488.50
2023-02-19T13:09:07.213Z,93486.00
2023-02-19T13:11:42.284Z,93470.94
2023-02-19T13:14:13.764Z,93478.91
2023-02-19T13:16:48.876Z,93471.81
2023-02-19T13:19:17.505Z,93463.84
2023-02-19T13:22:17.998Z,93473.16
2023-02-19T13:24:47.521Z,93446.44
2023-02-19T13:27:43.119Z,93464.13
2023-02-19T13:30:50.053Z,93457.53
2023-02-19T13:33:33.696Z,93461.34
2023-02-19T13:36:43.233Z,93447.19
2023-02-19T13:41:55.587Z,93436.75
2023-02-19T13:44:28.233Z,93432.06
2023-02-19T13:47:00.118Z,93432.34
2023-02-19T13:49:28.610Z,93427.38
2023-02-19T13:51:58.130Z,93426.09
2023-02-19T13:54:36.371Z,93421.25
2023-02-19T13:57:28.957Z,93423.91
2023-02-19T13:59:58.813Z,93414.13
2023-02-19T14:02:33.995Z,93414.44
2023-02-19T14:05:09.706Z,93412.38
2023-02-19T14:07:53.980Z,93410.22
2023-02-19T14:10:53.481Z,93412.63
2023-02-19T14:13:52.886Z,93421.47
2023-02-19T14:16:55.226Z,93411.81
2023-02-19T14:19:42.160Z,93398.69
2023-02-19T14:22:58.416Z,93394.84
2023-02-19T14:25:44.159Z,93389.50
2023-02-19T14:28:33.967Z,93394.28
2023-02-19T14:31:17.815Z,93392.41
2023-02-19T14:34:15.411Z,93396.50
2023-02-19T14:36:54.570Z,93388.91
2023-02-19T14:39:36.716Z,93381.63
2023-02-19T14:42:22.291Z,93389.44
2023-02-19T14:44:57.737Z,93392.94
2023-02-19T14:47:31.274Z,93365.88
2023-02-19T14:50:15.577Z,93386.00
2023-02-19T14:52:52.067Z,93366.84
2023-02-19T14:55:37.518Z,93368.72
2023-02-19T14:58:12.731Z,93379.47
2023-02-19T15:00:43.030Z,93368.91
2023-02-19T15:03:38.154Z,93362.59
2023-02-19T15:06:12.819Z,93371.22
2023-02-19T15:08:47.095Z,93372.22
2023-02-19T15:11:25.314Z,93368.34
2023-02-19T15:13:59.224Z,93359.75
2023-02-19T15:16:29.839Z,93365.19
2023-02-19T15:19:00.272Z,93347.84
2023-02-19T15:21:33.810Z,93349.78
2023-02-19T15:24:05.603Z,93348.69
2023-02-19T15:26:37.362Z,93360.16
2023-02-19T15:29:14.412Z,93363.47
2023-02-19T15:32:16.410Z,93364.94
2023-02-19T15:34:55.330Z,93362.88
2023-02-19T15:37:33.152Z,93359.53
2023-02-19T15:40:08.036Z,93363.06
2023-02-19T15:42:38.511Z,93360.81
2023-02-19T15:45:18.570Z,93368.63
2023-02-19T15:48:09.626Z,93368.34
2023-02-19T15:50:44.466Z,93369.63
2023-02-19T15:53:24.311Z,93371.66
2023-02-19T15:56:10.284Z,93371.44
2023-02-19T15:59:13.875Z,93364.13
2023-02-19T16:01:42.645Z,93381.75
2023-02-19T16:04:16.611Z,93390.50
2023-02-19T16:06:56.360Z,93386.19
2023-02-19T16:09:31.478Z,93384.75
2023-02-19T16:12:01.716Z,93393.03
2023-02-19T16:14:32.275Z,93391.66
2023-02-19T16:17:17.025Z,93398.22
2023-02-19T16:20:02.826Z,93395.53
2023-02-19T16:22:41.137Z,93396.38
2023-02-19T16:25:28.848Z,93397.69
2023-02-19T16:27:59.071Z,93397.47
2023-02-19T16:30:31.588Z,93404.72
2023-02-19T16:33:32.482Z,93413.25
2023-02-19T16:36:21.373Z,93378.47
2023-02-19T16:39:04.477Z,93415.59
2023-02-19T16:41:53.190Z,93423.38
2023-02-19T16:44:21.690Z,93434.31
2023-02-19T16:47:03.577Z,93433.50
2023-02-19T16:49:32.358Z,93443.94
2023-02-19T16:52:04.250Z,93443.41
2023-02-19T16:54:32.909Z,93449.28
2023-02-19T16:57:01.147Z,93449.81
2023-02-19T16:59:29.435Z,93454.84
2023-02-19T17:01:57.966Z,93466.16
2023-02-19T17:04:26.380Z,93459.44
2023-02-19T17:06:54.952Z,93465.63
2023-02-19T17:09:23.245Z,93456.81
2023-02-19T17:11:51.469Z,93472.69
2023-02-19T17:14:20.007Z,93474.28
2023-02-19T17:16:48.677Z,93471.88
2023-02-19T17:19:19.600Z,93477.81
2023-02-19T17:21:48.218Z,93478.34
2023-02-19T17:24:16.750Z,93493.09
2023-02-19T17:26:45.242Z,93489.63
2023-02-19T17:29:15.946Z,93501.69
2023-02-19T17:31:45.226Z,93504.66
2023-02-19T17:34:13.687Z,93501.44
2023-02-19T17:36:43.671Z,93510.75
2023-02-19T17:39:18.044Z,93510.22
2023-02-19T17:41:46.487Z,93523.00
2023-02-19T17:44:14.809Z,93517.94
2023-02-19T17:46:43.840Z,93521.34
2023-02-19T17:49:13.700Z,93524.03
2023-02-19T17:51:42.397Z,93515.22
2023-02-19T17:54:11.001Z,93531.28
2023-02-19T17:56:43.624Z,93536.34
2023-02-19T17:59:13.069Z,93534.75
2023-02-19T18:01:41.751Z,93528.50
2023-02-19T18:04:10.223Z,93518.88
2023-02-19T18:06:38.822Z,93522.00
2023-02-19T18:09:07.074Z,93532.66
2023-02-19T18:11:37.350Z,93532.13
2023-02-19T18:14:05.821Z,93527.34
2023-02-19T18:16:34.236Z,93530.00
2023-02-19T18:19:03.152Z,93528.66
2023-02-19T18:21:31.234Z,93531.06
2023-02-19T18:23:59.644Z,93539.34
2023-02-19T18:26:28.272Z,93528.38
2023-02-19T18:28:57.091Z,93546.94
2023-02-19T18:31:25.472Z,93555.31
2023-02-19T18:33:54.096Z,93555.25
2023-02-19T18:36:23.204Z,93552.47
2023-02-19T18:38:51.653Z,93554.31
2023-02-19T18:41:21.397Z,93562.06
2023-02-19T18:43:49.892Z,93563.41
2023-02-19T18:46:21.664Z,93567.97
2023-02-19T18:48:50.166Z,93576.31
2023-02-19T18:51:18.748Z,93579.13
2023-02-19T18:53:47.196Z,93586.53
2023-02-19T18:56:16.161Z,93587.53
2023-02-19T18:58:44.942Z,93585.84
2023-02-19T19:01:14.457Z,93578.53
2023-02-19T19:03:43.424Z,93595.19
2023-02-19T19:06:11.797Z,93573.47
2023-02-19T19:08:40.254Z,93587.47
2023-02-19T19:11:09.486Z,93594.44
2023-02-19T19:13:37.898Z,93603.09
2023-02-19T19:16:07.031Z,93596.38
2023-02-19T19:18:38.438Z,93599.31
2023-02-19T19:21:07.458Z,93611.66
2023-02-19T19:23:36.188Z,93620.19
2023-02-19T19:26:08.170Z,93618.78
2023-02-19T19:28:39.739Z,93621.94
2023-02-19T19:31:08.776Z,93628.94
2023-02-19T19:33:37.366Z,93636.22
2023-02-19T19:36:06.725Z,93632.81
2023-02-19T19:38:35.562Z,93636.53
2023-02-19T19:41:04.338Z,93632.94
2023-02-19T19:43:34.189Z,93635.34
2023-02-19T19:46:04.483Z,93631.00
2023-02-19T19:48:33.588Z,93640.38
2023-02-19T19:51:02.070Z,93645.75
2023-02-19T19:53:30.736Z,93634.53
2023-02-19T19:56:00.996Z,93657.13
2023-02-19T19:58:29.795Z,93656.72
2023-02-19T20:01:02.076Z,93660.59
2023-02-19T20:03:32.786Z,93656.91
2023-02-19T20:06:02.398Z,93652.69
2023-02-19T20:08:30.691Z,93661.72
2023-02-19T20:10:59.099Z,93658.03
2023-02-19T20:13:31.005Z,93642.13
2023-02-19T20:15:59.670Z,93651.84
2023-02-19T20:18:28.582Z,93652.34
2023-02-19T20:20:57.250Z,93662.28
2023-02-19T20:23:27.363Z,93646.00
2023-02-19T20:25:58.620Z,93663.91
2023-02-19T20:28:27.169Z,93659.16
2023-02-19T20:30:55.591Z,93650.28
2023-02-19T20:33:24.564Z,93645.72
2023-02-19T20:35:52.980Z,93664.59
2023-02-19T20:38:21.149Z,93665.50
2023-02-19T20:40:49.502Z,93663.97
2023-02-19T20:43:17.561Z,93656.03
2023-02-19T20:45:46.821Z,93648.16
2023-02-19T20:48:16.967Z,93657.34
2023-02-19T20:50:46.189Z,93663.50
2023-02-19T20:53:14.559Z,93651.75
2023-02-19T20:55:42.602Z,93666.78
2023-02-19T20:58:10.566Z,93674.69
2023-02-19T21:00:38.995Z,93665.66
2023-02-19T21:03:09.454Z,93668.44
2023-02-19T21:05:39.772Z,93666.16
2023-02-19T21:08:07.960Z,93656.88
2023-02-19T21:10:36.213Z,93655.53
2023-02-19T21:13:04.237Z,93652.31
2023-02-19T21:15:32.185Z,93643.81
2023-02-19T21:18:00.399Z,93643.75
2023-02-19T21:20:28.273Z,93654.97
2023-02-19T21:22:56.352Z,93629.84
2023-02-19T21:25:24.326Z,93640.03
2023-02-19T21:27:52.203Z,93673.44
2023-02-19T21:30:20.302Z,93669.19
2023-02-19T21:32:48.196Z,93664.03
2023-02-19T21:35:16.648Z,93659.38
2023-02-19T21:37:44.625Z,93670.97
2023-02-19T21:40:13.612Z,93678.69
2023-02-19T21:42:41.303Z,93677.84
2023-02-19T21:45:09.445Z,93671.16
2023-02-19T21:47:37.413Z,93668.44
2023-02-19T21:50:06.701Z,93677.25
2023-02-19T21:52:34.672Z,93667.81
2023-02-19T21:55:02.752Z,93681.47
2023-02-19T21:57:32.593Z,93672.41
2023-02-19T22:00:00.595Z,93679.59
2023-02-19T22:02:28.856Z,93687.34
2023-02-19T22:04:57.942Z,93691.31
2023-02-19T22:07:26.341Z,93701.66
2023-02-19T22:09:54.676Z,93688.56
2023-02-19T22:12:22.545Z,93704.47
2023-02-19T22:14:50.635Z,93707.13
2023-02-19T22:17:19.778Z,93702.59
2023-02-19T22:19:47.694Z,93699.03
2023-02-19T22:22:15.699Z,93712.31
2023-02-19T22:24:43.594Z,93718.69
2023-02-19T22:27:11.553Z,93724.75
2023-02-19T22:29:39.524Z,93727.72
2023-02-19T22:32:07.792Z,93715.38
2023-02-19T22:34:42.018Z,93736.13
2023-02-19T22:37:10.779Z,93736.88
2023-02-19T22:39:38.680Z,93731.78
2023-02-19T22:42:06.580Z,93742.94
2023-02-19T22:44:35.635Z,93740.19
2023-02-19T22:47:03.323Z,93750.03
2023-02-19T22:49:31.374Z,93750.97
2023-02-19T22:52:04.573Z,93752.03
2023-02-19T22:54:32.653Z,93763.72
2023-02-19T22:57:00.672Z,93774.94
2023-02-19T22:59:28.914Z,93771.06
2023-02-19T23:01:57.251Z,93763.09
2023-02-19T23:04:26.118Z,93749.66
2023-02-19T23:06:53.946Z,93768.81
2023-02-19T23:09:28.715Z,93760.88
2023-02-19T23:12:08.760Z,93754.44
2023-02-19T23:14:36.980Z,93745.22
2023-02-19T23:17:05.350Z,93738.38
2023-02-19T23:19:33.307Z,93750.78
2023-02-19T23:22:04.100Z,93750.13
2023-02-19T23:24:34.111Z,93759.41
2023-02-19T23:27:02.572Z,93772.22
2023-02-19T23:29:31.168Z,93766.59
2023-02-19T23:32:00.509Z,93770.28
2023-02-19T23:34:28.647Z,93768.41
2023-02-19T23:36:59.651Z,93775.59
2023-02-19T23:39:27.573Z,93777.69
2023-02-19T23:41:57.156Z,93774.38
2023-02-19T23:44:25.929Z,93777.38
2023-02-19T23:46:53.671Z,93774.59
2023-02-19T23:49:21.254Z,93748.31
2023-02-19T23:51:49.471Z,93789.69
2023-02-19T23:54:17.447Z,93800.22
2023-02-19T23:56:45.457Z,93797.66
2023-02-19T23:59:13.710Z,93787.03
